Time;durP1;ratioP1;P1;durP2;ratioP2;P2;SDS_P1;SDS_P2;PMS_P1;PMS_P2;Temp;Humidity;BMP_temperature;BMP_pressure;BME280_temperature;BME280_humidity;BME280_pressure;Samples;Min_cycle;Max_cycle;Signal;HPM_P1;HPM_P2
2022/11/18 00:00:48;;;;;;;30.25;14.88;;;7.00;99.90;;;;;;4952957;28;20034;-83
2022/11/18 00:03:14;;;;;;;30.48;14.57;;;7.60;99.90;;;;;;4985149;28;20486;-83
2022/11/18 00:05:40;;;;;;;25.38;14.82;;;6.90;99.90;;;;;;4988480;28;20041;-83
2022/11/18 00:08:06;;;;;;;26.13;13.98;;;7.30;99.90;;;;;;4954801;28;20034;-83
2022/11/18 00:10:32;;;;;;;26.50;14.05;;;6.90;99.90;;;;;;4971191;28;20158;-83
2022/11/18 00:15:42;;;;;;;25.33;13.60;;;6.90;99.90;;;;;;4987977;28;20287;-83
2022/11/18 00:18:07;;;;;;;26.05;13.60;;;6.90;99.90;;;;;;4974766;28;20048;-83
2022/11/18 00:20:34;;;;;;;27.13;16.20;;;8.10;99.90;;;;;;4954762;28;20042;-83
2022/11/18 00:22:59;;;;;;;26.40;14.07;;;7.20;99.90;;;;;;4984665;28;20105;-84
2022/11/18 00:25:25;;;;;;;26.17;14.00;;;7.00;99.90;;;;;;4970755;28;20066;-84
2022/11/18 00:27:51;;;;;;;25.95;13.18;;;6.90;99.90;;;;;;4972661;28;20031;-84
2022/11/18 00:30:17;;;;;;;24.60;13.03;;;6.90;99.90;;;;;;4977222;28;20037;-83
2022/11/18 00:32:43;;;;;;;26.80;12.57;;;7.00;99.90;;;;;;4958969;28;20101;-84
2022/11/18 00:35:09;;;;;;;26.85;13.80;;;7.80;99.90;;;;;;4959227;28;20031;-84
2022/11/18 00:37:35;;;;;;;30.40;14.60;;;7.20;99.90;;;;;;4965790;28;20192;-83
2022/11/18 00:40:01;;;;;;;24.33;13.17;;;7.50;99.90;;;;;;4980164;28;20491;-83
2022/11/18 00:45:11;;;;;;;24.95;13.32;;;7.50;99.90;;;;;;4991591;28;20057;-83
2022/11/18 00:47:36;;;;;;;28.43;14.60;;;6.90;99.90;;;;;;4973347;28;20122;-83
2022/11/18 00:50:02;;;;;;;30.03;17.33;;;6.90;99.90;;;;;;4986395;28;20296;-83
2022/11/18 00:52:30;;;;;;;33.72;14.75;;;6.90;99.90;;;;;;4958851;28;20503;-84
2022/11/18 00:54:56;;;;;;;25.50;13.40;;;6.80;99.90;;;;;;4960474;28;20046;-83
2022/11/18 00:57:22;;;;;;;29.07;15.37;;;6.80;99.90;;;;;;4983495;28;20043;-83
2022/11/18 00:59:47;;;;;;;26.73;14.30;;;6.90;99.90;;;;;;4967121;28;20130;-83
2022/11/18 01:02:13;;;;;;;27.27;15.20;;;6.90;99.90;;;;;;4974601;28;20041;-83
2022/11/18 01:04:39;;;;;;;28.48;14.13;;;6.90;99.90;;;;;;4962929;28;20306;-84
2022/11/18 01:07:04;;;;;;;31.97;15.03;;;6.90;99.90;;;;;;4987668;28;20049;-83
2022/11/18 01:09:30;;;;;;;30.23;15.20;;;6.90;99.90;;;;;;4964857;28;20306;-84
2022/11/18 01:14:40;;;;;;;31.42;14.25;;;6.90;99.90;;;;;;4976731;28;20054;-84
2022/11/18 01:17:06;;;;;;;27.63;13.47;;;7.90;99.90;;;;;;4985661;28;20391;-83
2022/11/18 01:19:31;;;;;;;26.75;13.75;;;7.00;99.90;;;;;;4976294;28;20468;-83
2022/11/18 01:22:01;;;;;;;27.08;12.65;;;6.90;99.90;;;;;;4981345;28;20050;-83
2022/11/18 01:24:31;;;;;;;27.27;14.35;;;6.90;99.90;;;;;;4981935;28;20062;-83
2022/11/18 01:26:58;;;;;;;28.15;15.10;;;6.90;99.90;;;;;;4954372;28;20481;-82
2022/11/18 01:29:23;;;;;;;31.25;14.25;;;7.10;99.90;;;;;;4949162;28;20062;-83
2022/11/18 01:31:49;;;;;;;25.97;13.67;;;7.20;99.90;;;;;;4951528;28;20098;-83
2022/11/18 01:34:15;;;;;;;34.20;15.30;;;6.80;99.90;;;;;;4974398;28;20652;-84
2022/11/18 01:36:40;;;;;;;30.13;14.77;;;6.90;99.90;;;;;;4954599;28;20050;-83
2022/11/18 01:39:06;;;;;;;29.33;14.70;;;6.90;99.90;;;;;;4953012;28;20057;-86
2022/11/18 01:41:32;;;;;;;26.27;12.83;;;7.30;99.90;;;;;;4980823;28;20289;-83
2022/11/18 01:44:04;;;;;;;30.15;13.88;;;6.80;99.90;;;;;;4981070;28;20086;-84
2022/11/18 01:46:32;;;;;;;31.50;14.35;;;7.90;99.90;;;;;;4967892;28;20038;-83
2022/11/18 01:49:10;;;;;;;29.67;13.50;;;6.80;99.90;;;;;;4984575;28;20217;-82
2022/11/18 01:51:47;;;;;;;29.25;16.05;;;7.30;99.90;;;;;;4988616;28;20042;-84
2022/11/18 01:54:22;;;;;;;27.08;13.38;;;6.80;99.90;;;;;;4983599;28;20104;-83
2022/11/18 01:56:53;;;;;;;28.98;14.07;;;6.80;99.90;;;;;;4991645;28;20077;-82
2022/11/18 01:59:24;;;;;;;28.80;14.73;;;6.80;99.90;;;;;;4987266;28;20073;-82
2022/11/18 02:01:49;;;;;;;29.77;13.48;;;6.80;99.90;;;;;;4972835;28;20068;-82
2022/11/18 02:04:16;;;;;;;31.20;14.10;;;6.80;99.90;;;;;;4965738;28;20035;-83
2022/11/18 02:06:44;;;;;;;31.00;14.80;;;6.80;99.90;;;;;;4960836;28;20057;-83
2022/11/18 02:09:10;;;;;;;27.08;13.38;;;6.80;99.90;;;;;;4981216;28;20041;-83
2022/11/18 02:11:53;;;;;;;28.05;14.68;;;6.80;99.90;;;;;;4972536;28;20042;-83
2022/11/18 02:14:30;;;;;;;29.17;14.32;;;6.80;99.90;;;;;;4971228;28;20038;-83
2022/11/18 02:17:18;;;;;;;32.45;14.75;;;6.80;99.90;;;;;;4971984;28;20061;-83
2022/11/18 02:19:46;;;;;;;30.58;13.98;;;6.80;99.90;;;;;;4969675;28;20042;-83
2022/11/18 02:22:27;;;;;;;29.10;14.32;;;7.10;99.90;;;;;;4984108;28;20050;-83
2022/11/18 02:25:11;;;;;;;30.17;14.38;;;6.80;99.90;;;;;;4977514;28;20112;-83
2022/11/18 02:27:58;;;;;;;30.42;13.77;;;6.80;99.90;;;;;;4984714;28;20124;-83
2022/11/18 02:30:24;;;;;;;27.42;12.25;;;6.80;99.90;;;;;;5011680;28;20125;-82
2022/11/18 02:33:08;;;;;;;27.88;13.43;;;7.70;99.90;;;;;;4975915;28;20096;-83
2022/11/18 02:35:47;;;;;;;28.98;14.52;;;6.80;99.90;;;;;;4988958;28;20038;-83
2022/11/18 02:38:27;;;;;;;31.52;14.07;;;6.80;99.90;;;;;;4964797;28;20044;-83
2022/11/18 02:40:57;;;;;;;32.22;12.88;;;6.80;99.90;;;;;;4990721;28;20054;-83
2022/11/18 02:43:34;;;;;;;33.13;13.75;;;6.80;99.90;;;;;;4965973;28;20124;-83
2022/11/18 02:46:04;;;;;;;33.42;14.40;;;6.80;99.90;;;;;;4985606;28;20042;-84
2022/11/18 02:48:34;;;;;;;31.02;14.30;;;6.70;99.90;;;;;;4987885;28;20035;-83
2022/11/18 02:51:03;;;;;;;33.90;14.70;;;6.70;99.90;;;;;;4992722;28;20189;-83
2022/11/18 02:53:31;;;;;;;35.95;15.88;;;7.10;99.90;;;;;;4970001;28;20391;-84
2022/11/18 02:55:59;;;;;;;28.02;13.30;;;6.70;99.90;;;;;;4960341;28;20050;-84
2022/11/18 02:58:25;;;;;;;36.60;15.15;;;6.70;99.90;;;;;;4964546;28;20870;-84
2022/11/18 03:00:59;;;;;;;29.77;13.85;;;6.70;99.90;;;;;;4969534;28;20038;-84
2022/11/18 03:03:32;;;;;;;36.22;14.82;;;7.40;99.90;;;;;;4966349;28;20125;-84
2022/11/18 03:06:08;;;;;;;30.25;15.52;;;6.70;99.90;;;;;;4977117;28;20435;-84
2022/11/18 03:08:48;;;;;;;31.33;14.18;;;6.70;99.90;;;;;;4976608;28;20503;-84
2022/11/18 03:11:22;;;;;;;32.90;13.73;;;6.70;99.90;;;;;;4968850;28;20046;-84
2022/11/18 03:14:09;;;;;;;28.23;14.02;;;6.60;99.90;;;;;;4966407;28;20189;-84
2022/11/18 03:16:50;;;;;;;29.67;13.93;;;7.20;99.90;;;;;;4978321;28;20034;-84
2022/11/18 03:19:34;;;;;;;27.20;13.85;;;6.60;99.90;;;;;;4987782;28;20077;-84
2022/11/18 03:22:20;;;;;;;25.52;11.48;;;6.60;99.90;;;;;;4986463;28;20038;-84
2022/11/18 03:24:56;;;;;;;28.67;13.48;;;6.60;99.90;;;;;;4967490;28;20050;-84
2022/11/18 03:27:52;;;;;;;31.60;14.88;;;6.60;99.90;;;;;;4962765;28;20561;-82
2022/11/18 03:30:20;;;;;;;28.20;13.95;;;6.50;99.90;;;;;;4985350;28;20034;-82
2022/11/18 03:32:57;;;;;;;34.38;15.20;;;7.30;99.90;;;;;;4967383;28;20563;-83
2022/11/18 03:35:27;;;;;;;31.38;15.65;;;6.50;99.90;;;;;;4990601;28;20039;-83
2022/11/18 03:38:02;;;;;;;36.83;15.13;;;6.50;99.90;;;;;;4971563;28;20046;-83
2022/11/18 03:40:30;;;;;;;37.30;15.48;;;6.40;99.90;;;;;;4985524;28;20402;-83
2022/11/18 03:43:05;;;;;;;32.97;15.65;;;6.50;99.90;;;;;;4971555;28;20081;-82
2022/11/18 03:45:40;;;;;;;32.00;14.45;;;6.40;99.90;;;;;;4973859;28;20038;-83
2022/11/18 03:48:23;;;;;;;26.58;13.48;;;6.40;99.90;;;;;;4983218;28;20117;-83
2022/11/18 03:51:00;;;;;;;30.50;13.45;;;6.50;99.90;;;;;;4974196;28;20061;-84
2022/11/18 03:53:29;;;;;;;27.60;11.88;;;6.40;99.90;;;;;;4982718;28;20053;-84
2022/11/18 03:56:05;;;;;;;27.17;12.93;;;6.40;99.90;;;;;;4980217;28;20034;-84
2022/11/18 03:58:55;;;;;;;27.77;12.13;;;6.40;99.90;;;;;;4982633;28;20034;-84
2022/11/18 04:01:48;;;;;;;24.45;11.85;;;6.50;99.90;;;;;;4990951;28;20486;-84
2022/11/18 04:04:14;;;;;;;30.77;12.50;;;6.80;99.90;;;;;;4960386;28;20046;-84
2022/11/18 04:06:52;;;;;;;25.45;10.80;;;6.40;99.90;;;;;;4965790;28;20062;-84
2022/11/18 04:09:24;;;;;;;25.27;11.85;;;6.40;99.90;;;;;;4988908;28;20563;-84
2022/11/18 04:12:04;;;;;;;26.23;11.98;;;6.30;99.90;;;;;;4982556;28;20034;-83
2022/11/18 04:14:38;;;;;;;24.90;11.68;;;6.40;99.90;;;;;;4967317;28;20417;-84
2022/11/18 04:17:08;;;;;;;27.92;12.88;;;6.40;99.90;;;;;;4968041;28;20050;-84
2022/11/18 04:19:34;;;;;;;22.40;11.77;;;6.70;99.90;;;;;;4977667;28;20045;-84
2022/11/18 04:22:00;;;;;;;26.40;11.18;;;7.70;99.90;;;;;;4965546;28;20042;-84
2022/11/18 04:24:25;;;;;;;22.47;10.40;;;6.40;99.90;;;;;;4974772;28;20133;-84
2022/11/18 04:26:51;;;;;;;22.03;10.63;;;6.40;99.90;;;;;;4974899;28;20305;-84
2022/11/18 04:29:17;;;;;;;23.30;10.53;;;6.40;99.90;;;;;;4949173;28;20038;-83
2022/11/18 04:31:42;;;;;;;22.73;11.23;;;6.30;99.90;;;;;;4965681;28;20034;-84
2022/11/18 04:34:08;;;;;;;21.13;9.38;;;6.30;99.90;;;;;;4966969;28;20044;-84
2022/11/18 04:36:33;;;;;;;24.33;10.80;;;6.30;99.90;;;;;;4988226;28;20042;-84
2022/11/18 04:38:59;;;;;;;20.23;9.77;;;6.40;99.90;;;;;;4965034;28;20069;-84
2022/11/18 04:41:54;;;;;;;23.35;11.80;;;7.50;99.90;;;;;;4967685;28;20054;-84
2022/11/18 04:44:11;;;;;;;24.23;11.18;;;6.40;99.90;;;;;;4962686;28;20054;-83
2022/11/18 04:46:46;;;;;;;19.75;10.50;;;6.80;99.90;;;;;;4946927;28;20038;-84
2022/11/18 04:49:13;;;;;;;23.63;12.27;;;6.30;99.90;;;;;;4949263;28;20073;-84
2022/11/18 04:51:43;;;;;;;20.33;10.05;;;6.30;99.90;;;;;;4963113;28;20046;-84
2022/11/18 04:54:10;;;;;;;19.48;10.52;;;6.30;99.90;;;;;;4981858;28;20042;-84
2022/11/18 04:56:36;;;;;;;25.38;10.75;;;6.30;99.90;;;;;;4991054;28;20042;-84
2022/11/18 04:59:03;;;;;;;20.42;10.23;;;6.60;99.90;;;;;;4990776;28;20060;-85
2022/11/18 05:01:29;;;;;;;20.30;10.50;;;6.30;99.90;;;;;;4978585;28;20121;-84
2022/11/18 05:03:55;;;;;;;23.48;10.73;;;7.40;99.90;;;;;;4956586;28;20082;-84
2022/11/18 05:06:21;;;;;;;25.45;11.32;;;6.30;99.90;;;;;;4986097;28;20432;-85
2022/11/18 05:08:47;;;;;;;22.50;11.07;;;6.30;99.90;;;;;;4970155;28;20073;-85
2022/11/18 05:13:57;;;;;;;20.25;10.38;;;6.30;99.90;;;;;;4966108;28;20054;-86
2022/11/18 05:16:22;;;;;;;19.03;10.43;;;6.30;99.90;;;;;;4958535;28;20042;-84
2022/11/18 05:18:48;;;;;;;22.90;10.13;;;6.20;99.90;;;;;;4974611;28;20077;-84
2022/11/18 05:21:14;;;;;;;22.23;10.20;;;6.20;99.90;;;;;;4942022;28;20034;-85
2022/11/18 05:23:39;;;;;;;23.73;11.37;;;6.20;99.90;;;;;;4967303;28;20304;-83
2022/11/18 05:26:07;;;;;;;21.70;10.07;;;6.20;99.90;;;;;;4951060;28;20129;-83
2022/11/18 05:28:33;;;;;;;23.38;12.20;;;7.00;99.90;;;;;;4968263;28;20064;-86
2022/11/18 05:30:59;;;;;;;21.58;10.18;;;7.60;99.90;;;;;;4976181;28;20077;-85
2022/11/18 05:33:25;;;;;;;24.13;11.50;;;7.10;99.90;;;;;;4993450;28;20441;-85
2022/11/18 05:35:51;;;;;;;23.40;10.53;;;6.40;99.90;;;;;;4963777;28;20122;-83
2022/11/18 05:38:17;;;;;;;23.88;10.65;;;6.20;99.90;;;;;;4951940;28;20428;-84
2022/11/18 05:40:42;;;;;;;28.10;11.97;;;6.20;99.90;;;;;;4961662;28;20049;-84
2022/11/18 05:43:12;;;;;;;26.73;11.17;;;6.60;99.90;;;;;;4986941;28;20278;-84
2022/11/18 05:45:39;;;;;;;27.17;10.85;;;6.90;99.90;;;;;;4979496;28;20042;-84
2022/11/18 05:48:06;;;;;;;25.35;11.23;;;6.60;99.90;;;;;;4949777;28;20046;-83
2022/11/18 05:50:34;;;;;;;26.58;12.38;;;6.20;99.90;;;;;;4954769;28;20491;-85
2022/11/18 05:53:01;;;;;;;25.58;12.43;;;6.20;99.90;;;;;;4984310;28;20499;-85
2022/11/18 05:55:29;;;;;;;;;;;6.40;99.90;;;;;;4968140;28;20070;-85
2022/11/18 05:57:54;;;;;;;;;;;6.60;99.90;;;;;;4966254;28;20007;-85
2022/11/18 06:00:20;;;;;;;28.67;11.48;;;6.20;99.90;;;;;;4961552;28;19965;-85
2022/11/18 06:02:49;;;;;;;29.35;12.77;;;6.10;99.90;;;;;;4978143;28;20097;-85
2022/11/18 06:05:17;;;;;;;33.08;12.20;;;7.30;99.90;;;;;;4984556;28;20042;-85
2022/11/18 06:07:44;;;;;;;24.95;11.30;;;6.10;99.90;;;;;;4952531;28;20158;-85
2022/11/18 06:10:18;;;;;;;31.77;11.80;;;6.10;99.90;;;;;;4970562;28;20034;-85
2022/11/18 06:12:48;;;;;;;28.10;11.57;;;6.70;99.90;;;;;;4982570;28;20093;-85
2022/11/18 06:15:29;;;;;;;31.80;11.63;;;6.10;99.90;;;;;;4983372;28;20113;-85
2022/11/18 06:18:12;;;;;;;29.90;12.52;;;6.10;99.90;;;;;;4988703;28;20046;-85
2022/11/18 06:20:40;;;;;;;31.02;11.32;;;6.10;99.90;;;;;;4970121;28;20048;-84
2022/11/18 06:23:06;;;;;;;25.88;12.10;;;7.40;99.90;;;;;;4957036;28;20633;-84
2022/11/18 06:25:31;;;;;;;30.00;12.00;;;6.30;99.90;;;;;;4984130;28;20042;-84
2022/11/18 06:28:00;;;;;;;28.98;11.70;;;6.10;99.90;;;;;;4972816;28;20585;-84
2022/11/18 06:30:26;;;;;;;28.85;12.20;;;6.10;99.90;;;;;;4967695;28;20046;-85
2022/11/18 06:32:52;;;;;;;30.40;12.60;;;7.40;99.90;;;;;;4972714;28;20046;-85
2022/11/18 06:35:17;;;;;;;30.23;11.30;;;6.20;99.90;;;;;;4965307;28;20131;-85
2022/11/18 06:37:43;;;;;;;28.13;11.27;;;6.10;99.90;;;;;;4985692;28;20525;-85
2022/11/18 06:40:10;;;;;;;33.80;12.87;;;6.70;99.90;;;;;;4981385;28;20305;-85
2022/11/18 06:45:20;;;;;;;26.63;12.40;;;6.10;99.90;;;;;;4994229;28;20419;-85
2022/11/18 06:47:46;;;;;;;29.67;12.77;;;6.80;99.90;;;;;;4960704;28;20038;-85
2022/11/18 06:50:12;;;;;;;28.48;11.88;;;6.20;99.90;;;;;;4983565;28;20756;-85
2022/11/18 06:52:38;;;;;;;30.63;14.00;;;6.10;99.90;;;;;;4990888;28;20118;-84
2022/11/18 06:55:06;;;;;;;38.58;13.10;;;6.10;99.90;;;;;;4967720;28;20042;-85
2022/11/18 06:57:33;;;;;;;33.63;12.77;;;6.10;99.90;;;;;;4967791;28;20054;-85
2022/11/18 06:59:58;;;;;;;24.77;11.10;;;6.00;99.90;;;;;;4981180;28;20065;-85
2022/11/18 07:02:24;;;;;;;35.43;13.47;;;6.30;99.90;;;;;;4960515;28;20034;-85
2022/11/18 07:04:50;;;;;;;35.95;14.20;;;6.00;99.90;;;;;;4967872;28;20132;-86
2022/11/18 07:07:16;;;;;;;32.73;14.67;;;6.00;99.90;;;;;;4964913;28;20039;-86
2022/11/18 07:09:41;;;;;;;34.27;12.70;;;6.30;99.90;;;;;;4966837;28;20283;-86
2022/11/18 07:12:07;;;;;;;33.53;13.10;;;7.00;99.90;;;;;;4969548;28;20385;-82
2022/11/18 07:14:33;;;;;;;35.50;13.50;;;6.80;99.90;;;;;;4987659;28;20089;-83
2022/11/18 07:16:59;;;;;;;33.57;12.33;;;6.00;99.90;;;;;;4983554;28;20050;-84
2022/11/18 07:19:24;;;;;;;38.22;13.40;;;7.10;99.90;;;;;;4969329;28;20073;-83
2022/11/18 07:21:50;;;;;;;30.07;12.47;;;5.90;99.90;;;;;;4969298;28;20081;-84
2022/11/18 07:24:16;;;;;;;30.85;12.50;;;5.90;99.90;;;;;;4953504;28;20340;-83
2022/11/18 07:26:44;;;;;;;33.40;12.57;;;5.90;99.90;;;;;;4971771;28;20038;-84
2022/11/18 07:29:10;;;;;;;31.45;12.57;;;5.90;99.90;;;;;;4982972;28;20034;-83
2022/11/18 07:31:37;;;;;;;31.63;12.50;;;5.90;99.90;;;;;;4964711;28;20575;-83
2022/11/18 07:34:03;;;;;;;32.83;12.52;;;5.90;99.90;;;;;;4992607;28;20039;-82
2022/11/18 07:36:29;;;;;;;31.13;12.70;;;5.90;99.90;;;;;;4984708;28;20116;-82
2022/11/18 07:38:59;;;;;;;25.75;10.43;;;5.90;99.90;;;;;;4966040;28;20046;-81
2022/11/18 07:41:27;;;;;;;29.13;11.32;;;5.90;99.90;;;;;;4965832;28;20121;-82
2022/11/18 07:43:54;;;;;;;30.40;11.00;;;5.90;99.90;;;;;;4985195;28;20053;-83
2022/11/18 07:46:38;;;;;;;26.55;10.90;;;5.90;99.90;;;;;;4992091;28;20042;-83
2022/11/18 07:49:07;;;;;;;26.52;10.85;;;5.90;99.90;;;;;;4984191;28;20046;-84
2022/11/18 07:51:35;;;;;;;25.02;12.27;;;5.90;99.90;;;;;;4984884;28;20168;-84
2022/11/18 07:54:12;;;;;;;25.55;11.15;;;5.80;99.90;;;;;;4985913;28;20049;-84
2022/11/18 07:56:38;;;;;;;22.80;10.18;;;5.90;99.90;;;;;;4975792;28;20038;-84
2022/11/18 07:59:04;;;;;;;26.42;10.38;;;5.80;99.90;;;;;;4984893;28;20058;-83
2022/11/18 08:01:30;;;;;;;26.15;10.25;;;5.90;99.90;;;;;;4981641;28;20042;-84
2022/11/18 08:03:57;;;;;;;23.65;10.45;;;5.80;99.90;;;;;;4957360;28;20304;-84
2022/11/18 08:06:23;;;;;;;24.77;10.25;;;5.90;99.90;;;;;;4943897;28;20545;-83
2022/11/18 08:08:48;;;;;;;21.55;10.13;;;5.90;99.90;;;;;;4984282;28;20041;-84
2022/11/18 08:11:17;;;;;;;22.57;9.57;;;5.80;99.90;;;;;;4974507;28;20038;-84
2022/11/18 08:13:43;;;;;;;24.70;10.63;;;6.60;99.90;;;;;;4981356;28;20360;-83
2022/11/18 08:16:14;;;;;;;21.27;10.43;;;7.00;99.90;;;;;;4991707;28;20121;-83
2022/11/18 08:18:40;;;;;;;24.55;11.10;;;6.10;99.90;;;;;;4971322;28;20483;-83
2022/11/18 08:21:06;;;;;;;22.83;10.18;;;5.80;99.90;;;;;;4985346;28;20399;-86
2022/11/18 08:23:32;;;;;;;22.85;10.13;;;5.90;99.90;;;;;;4984537;28;20050;-85
2022/11/18 08:26:03;;;;;;;24.77;10.53;;;7.30;99.90;;;;;;4949661;28;20039;-85
2022/11/18 08:28:29;;;;;;;23.30;10.82;;;5.90;99.90;;;;;;4961155;28;20286;-85
2022/11/18 08:30:54;;;;;;;24.20;9.52;;;5.80;99.90;;;;;;4984313;28;20060;-85
2022/11/18 08:33:20;;;;;;;22.13;8.98;;;5.80;99.90;;;;;;4971056;28;20039;-86
2022/11/18 08:35:46;;;;;;;18.52;9.05;;;5.90;99.90;;;;;;4968149;28;20042;-86
2022/11/18 08:38:12;;;;;;;19.53;9.40;;;7.20;99.90;;;;;;4966162;28;20495;-86
2022/11/18 08:40:43;;;;;;;21.60;8.80;;;5.80;99.90;;;;;;4958366;28;20297;-86
2022/11/18 08:43:10;;;;;;;18.20;9.43;;;5.80;99.90;;;;;;4968311;28;20044;-85
2022/11/18 08:45:42;;;;;;;23.65;8.93;;;6.00;99.90;;;;;;4965222;28;20085;-86
2022/11/18 08:48:07;;;;;;;19.23;8.40;;;5.80;99.90;;;;;;4967820;28;20046;-86
2022/11/18 08:50:33;;;;;;;19.63;8.07;;;6.80;99.90;;;;;;4983668;28;20046;-86
2022/11/18 08:52:59;;;;;;;25.43;10.20;;;5.80;99.90;;;;;;4954009;28;20773;-85
2022/11/18 08:55:25;;;;;;;23.03;10.03;;;6.00;99.90;;;;;;4974406;28;20638;-86
2022/11/18 08:57:50;;;;;;;23.37;9.20;;;5.80;99.90;;;;;;4951572;28;20042;-86
2022/11/18 09:00:17;;;;;;;23.57;9.33;;;5.80;99.90;;;;;;4964749;28;20292;-86
2022/11/18 09:02:42;;;;;;;24.65;10.68;;;5.80;99.90;;;;;;4970362;28;20158;-86
2022/11/18 09:05:08;;;;;;;28.13;12.38;;;6.20;99.90;;;;;;4959146;28;20461;-86
2022/11/18 09:07:34;;;;;;;24.13;9.40;;;5.90;99.90;;;;;;4974719;28;20040;-86
2022/11/18 09:09:59;;;;;;;25.53;9.30;;;5.80;99.90;;;;;;4969963;28;20039;-86
2022/11/18 09:12:25;;;;;;;24.97;10.10;;;6.20;99.90;;;;;;4949390;28;20718;-86
2022/11/18 09:14:51;;;;;;;18.37;9.30;;;6.40;99.90;;;;;;4970171;28;20053;-85
2022/11/18 09:17:16;;;;;;;17.37;7.70;;;5.80;99.90;;;;;;4968280;28;20060;-85
2022/11/18 09:19:42;;;;;;;15.90;6.93;;;5.80;99.90;;;;;;4967546;28;20281;-86
2022/11/18 09:22:08;;;;;;;15.88;7.93;;;5.70;99.90;;;;;;4967683;28;20039;-86
2022/11/18 09:24:34;;;;;;;14.98;7.28;;;5.80;99.90;;;;;;4958491;28;20045;-86
2022/11/18 09:27:05;;;;;;;16.65;7.53;;;6.90;99.90;;;;;;4948566;28;20081;-85
2022/11/18 09:29:31;;;;;;;14.15;7.05;;;5.80;99.90;;;;;;4983945;28;20042;-85
2022/11/18 09:32:00;;;;;;;17.92;8.27;;;5.80;99.90;;;;;;4965133;28;20517;-84
2022/11/18 09:34:27;;;;;;;18.17;8.23;;;5.80;99.90;;;;;;4990979;28;20045;-84
2022/11/18 09:36:54;;;;;;;18.75;8.77;;;5.80;99.90;;;;;;4971445;28;20034;-87
2022/11/18 09:39:22;;;;;;;18.88;8.90;;;7.00;99.90;;;;;;4962780;28;20495;-92
2022/11/18 09:42:04;;;;;;;21.05;9.52;;;5.80;99.90;;;;;;4963540;28;20050;-84
2022/11/18 09:44:50;;;;;;;20.95;10.32;;;5.80;99.90;;;;;;5003085;28;20049;-84
2022/11/18 09:47:15;;;;;;;21.65;9.25;;;5.80;99.90;;;;;;4967215;28;20510;-84
2022/11/18 09:49:43;;;;;;;20.60;9.27;;;5.80;99.90;;;;;;4969477;28;20069;-84
2022/11/18 09:52:16;;;;;;;19.95;9.15;;;5.70;99.90;;;;;;4966788;28;20503;-83
2022/11/18 09:54:42;;;;;;;16.55;8.18;;;5.70;99.90;;;;;;4969557;28;20542;-84
2022/11/18 09:57:15;;;;;;;18.83;8.40;;;5.70;99.90;;;;;;4964586;28;20173;-86
2022/11/18 09:59:42;;;;;;;19.65;8.43;;;6.60;99.90;;;;;;4985312;28;20286;-85
2022/11/18 10:02:42;;;;;;;17.38;8.32;;;5.70;99.90;;;;;;4962563;28;20160;-85
2022/11/18 10:05:26;;;;;;;18.48;7.45;;;5.70;99.90;;;;;;4972460;28;20035;-85
2022/11/18 10:08:10;;;;;;;19.23;7.82;;;5.80;99.90;;;;;;4970086;28;20089;-85
2022/11/18 10:10:48;;;;;;;19.98;7.97;;;5.70;99.90;;;;;;4991286;28;20045;-86
2022/11/18 10:13:35;;;;;;;18.27;8.55;;;5.60;99.90;;;;;;4968014;28;20041;-86
2022/11/18 10:16:27;;;;;;;18.50;8.45;;;5.60;99.90;;;;;;4983116;28;20039;-87
2022/11/18 10:19:23;;;;;;;17.08;8.35;;;5.60;99.90;;;;;;4978519;28;20422;-86
2022/11/18 10:22:10;;;;;;;17.63;8.95;;;5.60;99.90;;;;;;4963666;28;20034;-86
2022/11/18 10:24:40;;;;;;;19.77;9.32;;;5.50;99.90;;;;;;4983881;28;20046;-86
2022/11/18 10:27:12;;;;;;;19.23;8.25;;;5.90;99.90;;;;;;4985093;28;20042;-86
2022/11/18 10:29:38;;;;;;;18.50;9.27;;;5.70;99.90;;;;;;4991499;28;20045;-85
2022/11/18 10:32:09;;;;;;;21.88;8.80;;;5.50;99.90;;;;;;4970934;28;20490;-86
2022/11/18 10:34:52;;;;;;;21.02;10.35;;;6.20;99.90;;;;;;4975862;28;20042;-86
2022/11/18 10:37:32;;;;;;;20.48;9.32;;;5.50;99.90;;;;;;4968532;28;20046;-86
2022/11/18 10:40:01;;;;;;;25.05;11.13;;;5.50;99.90;;;;;;4977749;28;20050;-86
2022/11/18 10:42:40;;;;;;;24.80;11.13;;;5.50;99.90;;;;;;4972737;28;20061;-87
2022/11/18 10:45:24;;;;;;;26.02;11.50;;;5.40;99.90;;;;;;4993765;28;20137;-86
2022/11/18 10:48:14;;;;;;;26.80;12.40;;;5.40;99.90;;;;;;4987247;28;20049;-86
2022/11/18 10:50:43;;;;;;;28.42;11.68;;;5.40;99.90;;;;;;4976661;28;20093;-86
2022/11/18 10:53:24;;;;;;;26.65;12.43;;;5.30;99.90;;;;;;4960671;28;20081;-86
2022/11/18 10:56:06;;;;;;;29.55;11.38;;;5.30;99.90;;;;;;4981407;28;20041;-86
2022/11/18 10:58:40;;;;;;;32.50;13.13;;;5.40;99.90;;;;;;4985641;28;20122;-86
2022/11/18 11:01:13;;;;;;;25.60;10.52;;;5.40;99.90;;;;;;4973351;28;20038;-86
2022/11/18 11:03:42;;;;;;;27.20;12.05;;;5.30;99.90;;;;;;4994356;28;20042;-86
2022/11/18 11:06:26;;;;;;;29.75;12.40;;;5.40;99.90;;;;;;4975695;28;20073;-86
2022/11/18 11:08:55;;;;;;;28.70;12.48;;;5.30;99.90;;;;;;4970396;28;20121;-85
2022/11/18 11:11:30;;;;;;;31.52;12.77;;;5.30;99.90;;;;;;4986245;28;20067;-85
2022/11/18 11:14:06;;;;;;;24.95;10.90;;;6.00;99.90;;;;;;4970211;28;20345;-84
2022/11/18 11:16:40;;;;;;;30.33;11.40;;;5.30;99.90;;;;;;4987539;28;20050;-84
2022/11/18 11:19:10;;;;;;;34.42;13.25;;;5.20;99.90;;;;;;4987153;28;20069;-84
2022/11/18 11:21:35;;;;;;;32.83;13.75;;;5.20;99.90;;;;;;4988519;28;20042;-84
2022/11/18 11:24:08;;;;;;;35.03;13.97;;;5.10;99.90;;;;;;4974354;28;20117;-83
2022/11/18 11:26:45;;;;;;;36.05;14.02;;;5.00;99.90;;;;;;4969971;28;20513;-83
2022/11/18 11:29:32;;;;;;;37.38;14.82;;;4.90;99.90;;;;;;4987329;28;20046;-84
2022/11/18 11:32:09;;;;;;;35.28;14.57;;;4.90;99.90;;;;;;4972695;28;20034;-84
2022/11/18 11:34:53;;;;;;;37.63;14.98;;;4.80;99.90;;;;;;4981746;28;20035;-84
2022/11/18 11:37:43;;;;;;;44.95;16.30;;;4.80;99.90;;;;;;4986334;28;20050;-84
2022/11/18 11:40:44;;;;;;;40.47;15.57;;;4.80;99.90;;;;;;4980689;28;20045;-84
2022/11/18 11:43:49;;;;;;;37.20;15.10;;;4.80;99.90;;;;;;4976990;28;20062;-84
2022/11/18 11:46:27;;;;;;;35.28;14.13;;;4.80;99.90;;;;;;4988321;28;20062;-85
2022/11/18 11:49:32;;;;;;;37.22;14.88;;;4.80;99.90;;;;;;4974044;28;20034;-85
2022/11/18 11:52:10;;;;;;;33.65;13.45;;;4.80;99.90;;;;;;4964734;28;20314;-85
2022/11/18 11:55:17;;;;;;;29.42;12.40;;;4.80;99.90;;;;;;4965497;28;20499;-85
2022/11/18 11:57:49;;;;;;;32.85;13.32;;;4.80;99.90;;;;;;4981803;28;20039;-85
2022/11/18 12:00:18;;;;;;;33.95;14.00;;;4.90;99.90;;;;;;4967306;28;20038;-84
2022/11/18 12:03:00;;;;;;;33.90;15.07;;;4.90;99.90;;;;;;4992457;28;20524;-85
2022/11/18 12:05:35;;;;;;;30.98;13.00;;;4.80;99.90;;;;;;4965939;28;20050;-85
2022/11/18 12:08:11;;;;;;;31.50;13.82;;;4.80;99.90;;;;;;4977683;28;20035;-85
2022/11/18 12:10:55;;;;;;;32.58;14.02;;;4.80;99.90;;;;;;4983326;28;20035;-84
2022/11/18 12:13:41;;;;;;;29.25;12.75;;;4.70;99.90;;;;;;4986373;28;20081;-84
2022/11/18 12:16:23;;;;;;;29.80;12.43;;;4.70;99.90;;;;;;4982616;28;20113;-84
2022/11/18 12:19:05;;;;;;;27.05;11.40;;;4.70;99.90;;;;;;4978689;28;20046;-84
2022/11/18 12:21:44;;;;;;;27.10;13.15;;;4.70;99.90;;;;;;4987304;28;20045;-85
2022/11/18 12:24:23;;;;;;;25.33;10.88;;;4.90;99.90;;;;;;4964348;28;20030;-85
2022/11/18 12:26:49;;;;;;;24.80;9.63;;;4.70;99.90;;;;;;4985205;28;20066;-85
2022/11/18 12:29:18;;;;;;;24.42;10.27;;;4.70;99.90;;;;;;4970542;28;20077;-83
2022/11/18 12:31:49;;;;;;;27.77;13.23;;;5.20;99.90;;;;;;4980713;28;20050;-84
2022/11/18 12:34:24;;;;;;;28.70;11.73;;;4.70;99.90;;;;;;4990939;28;20089;-83
2022/11/18 12:36:51;;;;;;;32.70;12.10;;;4.60;99.90;;;;;;4982847;28;20052;-83
2022/11/18 12:39:29;;;;;;;29.33;12.57;;;4.70;99.90;;;;;;4982165;28;20046;-83
2022/11/18 12:45:39;;;;;;;23.13;10.57;;;4.70;99.90;;;;;;4935611;29;20139;-84
2022/11/18 12:48:31;;;;;;;22.00;9.95;;;4.60;99.90;;;;;;4933877;29;20059;-83
2022/11/18 12:50:59;;;;;;;25.70;11.35;;;4.60;99.90;;;;;;4969203;28;20054;-83
2022/11/18 12:53:38;;;;;;;26.73;11.77;;;4.50;99.90;;;;;;4991370;28;20035;-84
2022/11/18 12:56:15;;;;;;;23.70;11.27;;;4.50;99.90;;;;;;4970709;28;20557;-84
2022/11/18 12:58:44;;;;;;;25.17;10.90;;;4.50;99.90;;;;;;4981592;28;20035;-84
2022/11/18 13:01:12;;;;;;;24.48;10.80;;;4.50;99.90;;;;;;4968202;28;20046;-84
2022/11/18 13:03:37;;;;;;;22.33;9.45;;;4.60;99.90;;;;;;4968026;28;20050;-84
2022/11/18 13:06:18;;;;;;;26.13;10.82;;;4.50;99.90;;;;;;4991099;28;20165;-83
2022/11/18 13:08:50;;;;;;;21.38;9.70;;;4.50;99.90;;;;;;4990816;28;20039;-83
2022/11/18 13:19:33;;;;;;;33.20;15.00;;;5.20;99.90;;;;;;4987774;28;20074;-84
2022/11/18 13:24:50;;;;;;;34.40;14.32;;;5.10;99.90;;;;;;4986654;28;20049;-84
2022/11/18 13:27:43;;;;;;;34.90;14.23;;;4.20;99.90;;;;;;4981487;28;20559;-84